createdAt,value
2023-01-15T12:01:50.544Z,4.00
2023-01-15T12:03:24.264Z,4.00
2023-01-15T12:04:58.189Z,2.00
2023-01-15T12:06:30.150Z,2.80
2023-01-15T12:08:03.277Z,2.20
2023-01-15T12:09:38.202Z,3.00
2023-01-15T12:11:26.693Z,3.00
2023-01-15T12:13:08.875Z,2.00
2023-01-15T12:14:55.364Z,2.00
2023-01-15T12:16:40.765Z,2.00
2023-01-15T12:18:25.027Z,3.80
2023-01-15T12:20:11.704Z,3.00
2023-01-15T12:22:25.055Z,2.00
2023-01-15T12:24:02.760Z,3.60
2023-01-15T12:26:16.600Z,2.00
2023-01-15T12:27:55.857Z,18.80
2023-01-15T12:29:39.643Z,14.20
2023-01-15T12:31:19.461Z,10.60
2023-01-15T12:32:56.491Z,8.60
2023-01-15T12:34:55.340Z,7.80
2023-01-15T12:36:44.857Z,4.00
2023-01-15T12:38:35.134Z,5.00
2023-01-15T12:40:15.660Z,3.20
2023-01-15T12:42:09.029Z,4.60
2023-01-15T12:43:59.970Z,4.00
2023-01-15T12:45:33.677Z,4.00
2023-01-15T12:47:07.313Z,2.00
2023-01-15T12:49:06.790Z,2.00
2023-01-15T12:50:47.985Z,2.00
2023-01-15T12:52:24.418Z,4.00
2023-01-15T12:54:18.295Z,2.20
2023-01-15T12:56:02.236Z,2.00
2023-01-15T12:57:35.598Z,3.60
2023-01-15T12:59:30.159Z,2.80
2023-01-15T13:01:10.956Z,3.20
2023-01-15T13:03:07.820Z,3.00
2023-01-15T13:04:43.074Z,4.00
2023-01-15T13:06:17.121Z,2.00
2023-01-15T13:07:50.955Z,3.20
2023-01-15T13:09:34.886Z,3.40
2023-01-15T13:11:07.832Z,2.20
2023-01-15T13:12:40.214Z,3.60
2023-01-15T13:14:18.373Z,2.00
2023-01-15T13:16:07.708Z,3.20
2023-01-15T13:17:45.203Z,3.00
2023-01-15T13:19:40.955Z,3.60
2023-01-15T13:21:14.703Z,3.00
2023-01-15T13:23:07.702Z,3.00
2023-01-15T13:24:53.358Z,0.00
2023-01-15T13:26:47.177Z,3.00
2023-01-15T13:28:25.861Z,2.00
2023-01-15T13:29:57.598Z,3.40
2023-01-15T13:31:48.538Z,1.60
2023-01-15T13:33:29.338Z,3.00
2023-01-15T13:35:14.764Z,3.80
2023-01-15T13:36:46.857Z,3.00
2023-01-15T13:38:21.352Z,2.00
2023-01-15T13:40:03.635Z,2.80
2023-01-15T13:41:53.833Z,1.00
2023-01-15T13:43:33.635Z,2.80
2023-01-15T13:45:20.087Z,2.80
2023-01-15T13:47:08.961Z,2.40
2023-01-15T13:48:45.819Z,2.60
2023-01-15T13:50:40.642Z,4.00
2023-01-15T13:52:36.156Z,2.00
2023-01-15T13:54:12.985Z,3.00
2023-01-15T13:55:54.327Z,3.00
2023-01-15T13:57:34.338Z,3.00
2023-01-15T13:59:07.525Z,3.40
2023-01-15T14:00:40.435Z,3.00
2023-01-15T14:02:25.343Z,2.00
2023-01-15T14:04:07.220Z,3.00
2023-01-15T14:05:39.646Z,2.20
2023-01-15T14:07:32.913Z,3.00
2023-01-15T14:09:05.500Z,2.80
2023-01-15T14:10:38.727Z,2.20
2023-01-15T14:12:41.976Z,2.80
2023-01-15T14:14:47.450Z,2.40
2023-01-15T14:17:07.152Z,1.40
2023-01-15T14:19:09.676Z,2.60
2023-01-15T14:21:19.556Z,2.40
2023-01-15T14:23:10.118Z,2.00
2023-01-15T14:24:57.103Z,3.60
2023-01-15T14:26:55.188Z,7.00
2023-01-15T14:28:52.947Z,4.60
2023-01-15T14:31:02.622Z,3.20
2023-01-15T14:32:56.225Z,4.00
2023-01-15T14:34:32.528Z,3.00
2023-01-15T14:36:23.859Z,4.00
2023-01-15T14:37:58.304Z,4.00
2023-01-15T14:39:39.256Z,3.20
2023-01-15T14:41:13.122Z,3.00
2023-01-15T14:43:02.699Z,4.20
2023-01-15T14:44:34.765Z,3.20
2023-01-15T14:46:16.282Z,2.60
2023-01-15T14:47:50.800Z,3.00
2023-01-15T14:49:42.538Z,3.00
2023-01-15T14:51:22.167Z,2.60
2023-01-15T14:52:56.208Z,3.00
2023-01-15T14:54:28.668Z,4.00
2023-01-15T14:56:14.301Z,2.20
2023-01-15T14:57:54.798Z,3.00
2023-01-15T14:59:29.496Z,3.00
2023-01-15T15:01:05.260Z,3.40
2023-01-15T15:02:39.152Z,3.20
2023-01-15T15:04:16.226Z,2.80
2023-01-15T15:05:48.304Z,2.20
2023-01-15T15:07:41.739Z,3.20
2023-01-15T15:09:16.790Z,5.00
2023-01-15T15:10:53.419Z,4.20
2023-01-15T15:12:43.900Z,3.00
2023-01-15T15:14:15.829Z,3.00
2023-01-15T15:15:54.054Z,3.00
2023-01-15T15:17:32.545Z,3.00
2023-01-15T15:19:29.717Z,2.00
2023-01-15T15:21:10.397Z,3.20
2023-01-15T15:22:42.367Z,3.60
2023-01-15T15:24:19.097Z,3.00
2023-01-15T15:26:02.062Z,3.00
2023-01-15T15:27:33.932Z,3.00
2023-01-15T15:29:13.497Z,2.80
2023-01-15T15:30:45.881Z,3.60
2023-01-15T15:32:19.467Z,3.20
2023-01-15T15:33:51.417Z,3.60
2023-01-15T15:35:27.783Z,3.40
2023-01-15T15:37:01.738Z,2.40
2023-01-15T15:38:34.145Z,3.40
2023-01-15T15:40:16.373Z,4.00
2023-01-15T15:42:08.158Z,3.00
2023-01-15T15:44:01.992Z,4.00
2023-01-15T15:45:52.899Z,4.00
2023-01-15T15:47:44.072Z,3.00
2023-01-15T15:49:16.315Z,3.00
2023-01-15T15:50:48.307Z,4.00
2023-01-15T15:52:24.356Z,4.00
2023-01-15T15:54:16.551Z,2.80
2023-01-15T15:55:48.578Z,2.60
2023-01-15T15:57:20.542Z,4.00
2023-01-15T15:58:52.654Z,5.80
2023-01-15T16:00:34.234Z,12.60
2023-01-15T16:02:36.544Z,4.60
2023-01-15T16:04:08.525Z,5.40
2023-01-15T16:05:41.903Z,6.00
2023-01-15T16:07:15.426Z,4.00
2023-01-15T16:09:04.863Z,5.60
2023-01-15T16:10:36.950Z,5.00
2023-01-15T16:12:09.187Z,4.00
2023-01-15T16:13:44.393Z,3.00
2023-01-15T16:15:18.411Z,3.40
2023-01-15T16:16:50.542Z,4.00
2023-01-15T16:18:32.065Z,4.00
2023-01-15T16:20:04.606Z,3.00
2023-01-15T16:21:36.698Z,2.80
2023-01-15T16:23:25.598Z,4.00
2023-01-15T16:24:58.236Z,2.40
2023-01-15T16:26:40.563Z,1.60
2023-01-15T16:28:42.390Z,4.00
2023-01-15T16:30:15.016Z,4.00
2023-01-15T16:31:48.705Z,3.00
2023-01-15T16:33:20.537Z,4.00
2023-01-15T16:35:03.590Z,2.00
2023-01-15T16:36:40.135Z,4.00
2023-01-15T16:38:17.010Z,4.80
2023-01-15T16:39:48.890Z,4.00
2023-01-15T16:41:26.389Z,5.00
2023-01-15T16:43:04.539Z,4.20
2023-01-15T16:44:39.817Z,3.40
2023-01-15T16:46:18.077Z,5.40
2023-01-15T16:48:24.703Z,3.20
2023-01-15T16:50:27.334Z,4.00
2023-01-15T16:52:00.946Z,5.00
2023-01-15T16:53:39.925Z,2.00
2023-01-15T16:55:37.772Z,3.80
2023-01-15T16:57:33.864Z,4.80
2023-01-15T16:59:14.781Z,4.00
2023-01-15T17:00:53.359Z,4.00
2023-01-15T17:02:29.945Z,5.80
2023-01-15T17:04:02.352Z,3.40
2023-01-15T17:05:34.380Z,4.00
2023-01-15T17:07:28.070Z,4.80
2023-01-15T17:09:00.052Z,4.00
2023-01-15T17:10:32.360Z,4.00
2023-01-15T17:12:09.261Z,2.80
2023-01-15T17:13:41.748Z,3.40
2023-01-15T17:15:16.245Z,4.00
2023-01-15T17:16:48.623Z,1.00
2023-01-15T17:18:25.184Z,5.00
2023-01-15T17:19:57.594Z,5.00
2023-01-15T17:21:30.266Z,4.60
2023-01-15T17:23:02.188Z,15.00
2023-01-15T17:24:34.388Z,22.00
2023-01-15T17:26:07.040Z,24.80
2023-01-15T17:27:39.185Z,30.40
2023-01-15T17:29:12.533Z,29.80
2023-01-15T17:30:45.978Z,35.00
2023-01-15T17:32:24.630Z,41.25
2023-01-15T17:34:00.132Z,41.25
2023-01-15T17:35:34.150Z,41.50
2023-01-15T17:37:06.072Z,51.50
2023-01-15T17:38:38.042Z,49.00
2023-01-15T17:40:10.859Z,45.25
2023-01-15T17:41:42.855Z,51.25
2023-01-15T17:43:15.661Z,55.50
2023-01-15T17:44:47.566Z,56.25
2023-01-15T17:46:19.622Z,57.00
2023-01-15T17:47:51.610Z,64.25
2023-01-15T17:49:23.606Z,69.80
2023-01-15T17:50:55.494Z,77.00
2023-01-15T17:52:27.409Z,85.25
2023-01-15T17:53:59.257Z,82.75
2023-01-15T17:55:50.218Z,81.75
2023-01-15T17:57:40.536Z,82.00
2023-01-15T17:59:31.072Z,90.25
2023-01-15T18:01:32.888Z,87.75
2023-01-15T18:03:23.416Z,96.25
2023-01-15T18:05:14.038Z,96.25
2023-01-15T18:06:48.464Z,92.50
2023-01-15T18:08:20.724Z,97.50
2023-01-15T18:09:53.431Z,98.75
2023-01-15T18:11:25.370Z,85.25
2023-01-15T18:12:57.594Z,85.50
2023-01-15T18:14:29.652Z,91.75
2023-01-15T18:16:01.550Z,85.75
2023-01-15T18:17:33.897Z,88.00
2023-01-15T18:19:05.891Z,88.25
2023-01-15T18:20:37.816Z,89.25
2023-01-15T18:22:10.700Z,86.00
2023-01-15T18:23:42.605Z,85.25
2023-01-15T18:25:14.483Z,84.75
2023-01-15T18:26:46.373Z,80.25
2023-01-15T18:28:18.361Z,79.25
2023-01-15T18:29:50.537Z,81.00
2023-01-15T18:31:22.649Z,94.50
2023-01-15T18:32:54.780Z,77.75
2023-01-15T18:34:26.763Z,78.00
2023-01-15T18:36:09.880Z,69.60
2023-01-15T18:37:42.952Z,60.00
2023-01-15T18:39:14.909Z,60.25
2023-01-15T18:40:46.777Z,56.25
2023-01-15T18:42:37.179Z,55.00
2023-01-15T18:44:32.304Z,56.00
2023-01-15T18:46:24.541Z,54.75
2023-01-15T18:47:56.646Z,55.75
2023-01-15T18:49:28.969Z,60.50
2023-01-15T18:51:09.963Z,59.50
2023-01-15T18:52:50.954Z,61.75
2023-01-15T18:54:22.939Z,67.60
2023-01-15T18:55:54.787Z,67.75
2023-01-15T18:57:26.779Z,64.40
2023-01-15T18:58:58.600Z,69.00
2023-01-15T19:00:30.522Z,71.80
2023-01-15T19:02:02.428Z,77.00
2023-01-15T19:03:34.363Z,74.40
2023-01-15T19:05:06.654Z,75.25
2023-01-15T19:06:39.221Z,76.75
2023-01-15T19:08:11.107Z,81.75
2023-01-15T19:09:43.052Z,86.25
2023-01-15T19:11:15.095Z,84.25
2023-01-15T19:12:47.126Z,86.50
2023-01-15T19:14:38.150Z,85.00
2023-01-15T19:16:29.347Z,82.75
2023-01-15T19:18:19.637Z,89.75
2023-01-15T19:19:51.595Z,88.25
2023-01-15T19:21:25.026Z,90.00
2023-01-15T19:22:59.786Z,84.50
2023-01-15T19:24:31.750Z,95.75
2023-01-15T19:26:03.802Z,84.50
2023-01-15T19:27:35.666Z,125.75
2023-01-15T19:29:07.570Z,124.00
2023-01-15T19:30:39.693Z,147.25
2023-01-15T19:32:11.606Z,180.25
2023-01-15T19:33:45.492Z,201.50
2023-01-15T19:35:17.649Z,170.50
2023-01-15T19:36:49.736Z,144.67
2023-01-15T19:38:21.579Z,137.33
2023-01-15T19:39:53.694Z,131.67
2023-01-15T19:41:43.973Z,124.50
2023-01-15T19:43:35.515Z,120.50
2023-01-15T19:45:26.324Z,129.75
2023-01-15T19:47:16.766Z,122.00
2023-01-15T19:49:07.257Z,130.00
2023-01-15T19:50:42.894Z,131.00
2023-01-15T19:52:33.597Z,120.75
2023-01-15T19:54:06.345Z,127.50
2023-01-15T19:55:42.470Z,123.25
2023-01-15T19:57:20.451Z,113.25
2023-01-15T19:58:52.384Z,112.00
2023-01-15T20:00:24.412Z,122.50
2023-01-15T20:01:56.260Z,111.50
2023-01-15T20:03:28.221Z,111.50
2023-01-15T20:05:00.064Z,113.75
2023-01-15T20:06:31.963Z,110.50
2023-01-15T20:08:03.948Z,121.50
2023-01-15T20:09:37.316Z,129.50
2023-01-15T20:11:09.927Z,124.00
2023-01-15T20:13:00.293Z,128.25
2023-01-15T20:14:32.134Z,121.25
2023-01-15T20:16:17.868Z,127.50
2023-01-15T20:17:49.825Z,118.00
2023-01-15T20:19:21.741Z,121.25
2023-01-15T20:20:55.105Z,125.50
2023-01-15T20:22:30.052Z,119.75
2023-01-15T20:24:01.939Z,122.25
2023-01-15T20:25:33.834Z,108.75
2023-01-15T20:27:05.835Z,112.00
2023-01-15T20:28:42.630Z,113.75
2023-01-15T20:30:15.972Z,103.75
2023-01-15T20:31:47.819Z,105.25
2023-01-15T20:33:20.061Z,116.25
2023-01-15T20:34:51.928Z,99.75
2023-01-15T20:36:23.813Z,103.25
2023-01-15T20:37:55.691Z,106.25
2023-01-15T20:39:27.667Z,111.75
2023-01-15T20:41:19.621Z,98.00
2023-01-15T20:43:10.646Z,107.75
2023-01-15T20:44:54.867Z,99.75
2023-01-15T20:46:26.725Z,100.50
2023-01-15T20:48:14.159Z,104.75
2023-01-15T20:49:46.050Z,105.75
2023-01-15T20:51:20.091Z,99.25
2023-01-15T20:52:53.082Z,104.75
2023-01-15T20:54:25.679Z,95.75
2023-01-15T20:55:57.902Z,88.25
2023-01-15T20:57:29.973Z,98.25
2023-01-15T20:59:01.819Z,102.25
2023-01-15T21:00:34.703Z,97.00
2023-01-15T21:02:06.681Z,96.00
2023-01-15T21:03:38.870Z,92.50
2023-01-15T21:05:10.841Z,101.25
2023-01-15T21:06:42.768Z,94.50
2023-01-15T21:08:14.592Z,96.75
2023-01-15T21:09:46.445Z,90.00
2023-01-15T21:11:18.645Z,90.25
2023-01-15T21:12:50.572Z,90.25
2023-01-15T21:14:22.542Z,85.25
2023-01-15T21:15:59.018Z,72.50
2023-01-15T21:17:30.844Z,82.75
2023-01-15T21:19:05.042Z,87.00
2023-01-15T21:20:36.869Z,88.75
2023-01-15T21:22:08.865Z,86.75
2023-01-15T21:23:40.782Z,93.00
2023-01-15T21:25:13.564Z,88.00
2023-01-15T21:26:47.443Z,83.75
2023-01-15T21:28:19.335Z,91.50
2023-01-15T21:29:51.221Z,94.50
2023-01-15T21:31:23.302Z,93.75
2023-01-15T21:32:56.522Z,97.00
2023-01-15T21:34:28.612Z,93.00
2023-01-15T21:36:08.141Z,105.50
2023-01-15T21:37:39.985Z,102.50
2023-01-15T21:39:12.628Z,101.25
2023-01-15T21:40:44.567Z,96.25
2023-01-15T21:42:38.123Z,90.75
2023-01-15T21:44:33.113Z,97.00
2023-01-15T21:46:05.507Z,92.25
2023-01-15T21:47:37.820Z,94.25
2023-01-15T21:49:09.752Z,89.00
2023-01-15T21:50:41.661Z,97.75
2023-01-15T21:52:17.260Z,93.00
2023-01-15T21:53:49.037Z,97.25
2023-01-15T21:55:20.939Z,101.50
2023-01-15T21:56:53.703Z,106.25
2023-01-15T21:58:25.575Z,98.75
2023-01-15T21:59:57.423Z,102.75
2023-01-15T22:01:29.572Z,99.25
2023-01-15T22:03:01.636Z,96.00
2023-01-15T22:04:36.772Z,93.50
2023-01-15T22:06:09.822Z,97.25
2023-01-15T22:07:41.825Z,99.25
2023-01-15T22:09:13.721Z,97.50
2023-01-15T22:10:45.592Z,97.50
2023-01-15T22:12:17.436Z,91.25
2023-01-15T22:13:50.399Z,103.50
2023-01-15T22:15:22.219Z,89.25
2023-01-15T22:16:54.495Z,91.25
2023-01-15T22:18:27.916Z,90.75
2023-01-15T22:19:59.840Z,89.50
2023-01-15T22:21:31.835Z,90.00
2023-01-15T22:23:03.735Z,87.25
2023-01-15T22:24:36.551Z,91.50
2023-01-15T22:26:18.627Z,86.75
2023-01-15T22:27:50.517Z,86.25
2023-01-15T22:29:32.296Z,89.75
2023-01-15T22:31:06.355Z,79.00
2023-01-15T22:32:38.297Z,83.00
2023-01-15T22:34:10.128Z,78.25
2023-01-15T22:35:41.985Z,74.75
2023-01-15T22:37:14.664Z,66.50
2023-01-15T22:38:47.242Z,74.00
2023-01-15T22:40:19.161Z,69.00
2023-01-15T22:42:09.686Z,69.40
2023-01-15T22:43:41.558Z,66.80
2023-01-15T22:45:14.149Z,61.40
2023-01-15T22:46:46.039Z,65.00
2023-01-15T22:48:17.887Z,65.00
2023-01-15T22:49:49.734Z,62.25
2023-01-15T22:51:21.608Z,60.25
2023-01-15T22:52:54.035Z,56.00
2023-01-15T22:54:25.909Z,56.75
2023-01-15T22:55:58.294Z,48.25
2023-01-15T22:57:31.360Z,57.00
2023-01-15T22:59:03.247Z,49.50
2023-01-15T23:00:35.402Z,53.25
2023-01-15T23:02:07.393Z,53.25
2023-01-15T23:03:39.424Z,50.75
2023-01-15T23:05:11.479Z,47.50
2023-01-15T23:06:44.046Z,46.75
2023-01-15T23:08:15.961Z,43.00
2023-01-15T23:09:47.879Z,46.75
2023-01-15T23:11:19.722Z,43.75
2023-01-15T23:12:51.661Z,37.50
2023-01-15T23:14:23.595Z,40.25
2023-01-15T23:15:58.465Z,36.75
2023-01-15T23:17:30.367Z,34.00
2023-01-15T23:19:02.312Z,32.00
2023-01-15T23:20:34.163Z,33.20
2023-01-15T23:22:06.054Z,31.80
2023-01-15T23:23:38.208Z,31.60
2023-01-15T23:25:10.225Z,31.20
2023-01-15T23:26:42.284Z,29.80
2023-01-15T23:28:14.215Z,30.40
2023-01-15T23:29:46.042Z,28.80
2023-01-15T23:31:19.060Z,27.20
2023-01-15T23:32:51.322Z,29.40
2023-01-15T23:34:23.171Z,31.20
